createdAt,value
2018-05-08T00:03:26.879Z,15.60
2018-05-08T00:08:30.377Z,15.40
2018-05-08T00:13:34.606Z,15.40
2018-05-08T00:18:37.720Z,15.30
2018-05-08T00:23:40.825Z,15.30
2018-05-08T00:28:44.750Z,15.30
2018-05-08T00:33:48.274Z,15.20
2018-05-08T00:38:51.380Z,15.00
2018-05-08T00:43:54.873Z,15.00
2018-05-08T00:48:57.978Z,14.90
2018-05-08T00:54:01.826Z,14.90
2018-05-08T00:59:04.945Z,14.80
2018-05-08T01:04:09.176Z,14.80
2018-05-08T01:09:13.067Z,14.60
2018-05-08T01:14:16.639Z,14.50
2018-05-08T01:19:20.140Z,14.40
2018-05-08T01:24:24.096Z,14.30
2018-05-08T01:34:32.077Z,14.20
2018-05-08T01:44:40.018Z,14.00
2018-05-08T01:54:49.091Z,13.80
2018-05-08T01:59:53.323Z,13.90
2018-05-08T02:04:56.426Z,13.80
2018-05-08T02:09:59.515Z,13.90
2018-05-08T02:20:08.553Z,14.20
2018-05-08T02:25:11.656Z,14.20
2018-05-08T02:30:16.284Z,14.30
2018-05-08T02:35:20.187Z,14.40
2018-05-08T02:45:29.226Z,14.40
2018-05-08T02:50:33.838Z,14.50
2018-05-08T03:00:41.777Z,14.20
2018-05-08T03:05:45.279Z,14.00
2018-05-08T03:10:48.385Z,13.80
2018-05-08T03:15:52.160Z,13.60
2018-05-08T03:20:55.671Z,13.50
2018-05-08T03:26:00.110Z,13.40
2018-05-08T03:31:03.206Z,13.30
2018-05-08T03:36:07.435Z,13.20
2018-05-08T03:46:16.505Z,13.00
2018-05-08T03:51:21.537Z,12.90
2018-05-08T03:56:25.797Z,12.80
2018-05-08T04:01:47.490Z,12.80
2018-05-08T04:12:09.799Z,12.70
2018-05-08T04:17:12.883Z,12.70
2018-05-08T04:22:15.981Z,12.60
2018-05-08T04:27:19.819Z,12.70
2018-05-08T04:37:27.358Z,12.70
2018-05-08T04:42:30.470Z,12.70
2018-05-08T04:47:33.564Z,12.70
2018-05-08T04:52:37.423Z,12.90
2018-05-08T04:57:40.507Z,13.10
2018-05-08T05:07:48.818Z,13.80
2018-05-08T05:12:51.907Z,14.10
2018-05-08T05:23:00.209Z,14.70
2018-05-08T05:33:09.254Z,16.10
2018-05-08T05:38:12.347Z,16.90
2018-05-08T05:43:15.442Z,17.80
2018-05-08T05:48:19.680Z,18.70
2018-05-08T06:03:33.680Z,19.40
2018-05-08T06:23:50.119Z,20.20
2018-05-08T06:28:53.225Z,20.10
2018-05-08T06:33:56.326Z,20.30
2018-05-08T06:38:59.541Z,20.90
2018-05-08T06:44:02.939Z,20.90
2018-05-08T06:54:11.090Z,21.50
2018-05-08T07:09:23.866Z,23.30
2018-05-08T07:14:26.973Z,23.70
2018-05-08T07:19:30.076Z,25.00
2018-05-08T07:24:33.178Z,23.70
2018-05-08T07:29:36.273Z,24.00
2018-05-08T07:34:39.375Z,24.30
2018-05-08T07:39:42.475Z,24.80
2018-05-08T07:54:55.618Z,24.00
2018-05-08T07:59:58.713Z,23.70
2018-05-08T08:10:07.018Z,24.10
2018-05-08T08:15:10.106Z,24.00
2018-05-08T08:20:13.210Z,24.70
2018-05-08T08:25:16.326Z,24.70
2018-05-08T08:30:19.405Z,25.70
2018-05-08T08:35:23.274Z,25.50
2018-05-08T08:50:35.639Z,24.90
2018-05-08T08:55:38.739Z,25.50
2018-05-08T09:00:41.833Z,26.00
2018-05-08T09:10:51.230Z,27.00
2018-05-08T09:15:55.118Z,26.70
2018-05-08T09:21:00.101Z,26.40
2018-05-08T09:41:17.690Z,26.80
2018-05-08T09:46:20.791Z,27.90
2018-05-08T09:51:23.922Z,26.70
2018-05-08T09:56:26.998Z,26.50
2018-05-08T10:01:30.353Z,26.80
2018-05-08T10:16:42.320Z,27.00
2018-05-08T10:21:45.418Z,27.20
2018-05-08T10:26:48.813Z,27.30
2018-05-08T10:31:52.631Z,27.20
2018-05-08T10:36:55.732Z,27.50
2018-05-08T10:41:59.585Z,27.40
2018-05-08T11:02:17.386Z,26.30
2018-05-08T11:12:26.810Z,26.00
2018-05-08T11:17:30.588Z,25.90
2018-05-08T11:22:34.802Z,25.90
2018-05-08T11:27:38.787Z,26.10
2018-05-08T11:32:41.872Z,26.20
2018-05-08T11:37:44.962Z,26.40
2018-05-08T11:47:54.005Z,26.20
2018-05-08T11:52:57.901Z,26.10
2018-05-08T12:03:06.710Z,26.50
2018-05-08T12:08:10.978Z,26.30
2018-05-08T12:13:15.205Z,26.10
2018-05-08T12:18:19.173Z,26.40
2018-05-08T12:28:27.149Z,26.50
2018-05-08T12:43:40.309Z,26.40
2018-05-08T12:48:44.530Z,26.50
2018-05-08T12:53:47.630Z,26.60
2018-05-08T12:58:51.481Z,26.40
2018-05-08T13:03:55.715Z,26.50
2018-05-08T13:14:03.631Z,26.60
2018-05-08T13:19:07.505Z,26.40
2018-05-08T13:24:11.674Z,26.30
2018-05-08T13:34:20.650Z,26.60
2018-05-08T13:39:24.631Z,26.60
2018-05-08T13:44:28.855Z,26.70
2018-05-08T13:49:32.722Z,26.70
2018-05-08T13:54:35.834Z,26.60
2018-05-08T13:59:39.088Z,26.60
2018-05-08T14:04:42.030Z,26.70
2018-05-08T14:14:50.362Z,26.60
2018-05-08T14:19:53.463Z,26.60
2018-05-08T14:24:56.627Z,26.80
2018-05-08T14:30:00.423Z,26.70
2018-05-08T14:35:03.528Z,26.60
2018-05-08T14:40:07.601Z,26.70
2018-05-08T14:45:11.834Z,26.70
2018-05-08T14:50:16.051Z,26.60
2018-05-08T14:55:19.912Z,26.60
2018-05-08T15:10:32.845Z,26.80
2018-05-08T15:15:37.075Z,26.70
2018-05-08T15:20:40.163Z,26.80
2018-05-08T15:25:44.010Z,26.70
2018-05-08T15:40:57.149Z,26.60
2018-05-08T15:46:00.178Z,26.60
2018-05-08T15:51:03.284Z,26.60
2018-05-08T16:01:11.960Z,26.40
2018-05-08T16:06:15.065Z,26.50
2018-05-08T16:16:22.990Z,26.50
2018-05-08T16:21:27.219Z,26.40
2018-05-08T16:26:30.715Z,26.40
2018-05-08T16:31:33.814Z,26.30
2018-05-08T16:36:36.901Z,26.40
2018-05-08T16:41:39.998Z,26.40
2018-05-08T16:46:44.597Z,26.30
2018-05-08T16:51:47.690Z,26.20
2018-05-08T16:56:50.782Z,26.20
2018-05-08T17:01:53.879Z,26.20
2018-05-08T17:06:57.714Z,26.00
2018-05-08T17:12:00.805Z,26.00
2018-05-08T17:17:05.033Z,25.90
2018-05-08T17:22:09.266Z,25.80
2018-05-08T17:32:16.804Z,25.80
2018-05-08T17:37:20.665Z,25.70
2018-05-08T17:47:29.975Z,25.50
2018-05-08T18:07:46.777Z,25.20
2018-05-08T18:12:50.994Z,25.10
2018-05-08T18:17:54.089Z,25.00
2018-05-08T18:28:02.389Z,24.60
2018-05-08T18:33:06.234Z,24.40
2018-05-08T18:38:09.313Z,24.30
2018-05-08T18:43:13.570Z,24.10
2018-05-08T18:48:16.887Z,23.90
2018-05-08T18:58:25.138Z,23.50
2018-05-08T19:03:28.674Z,23.20
2018-05-08T19:13:37.646Z,22.60
2018-05-08T19:18:47.181Z,22.40
2018-05-08T19:29:06.123Z,22.00
2018-05-08T19:34:09.585Z,21.80
2018-05-08T19:39:13.073Z,21.60
2018-05-08T19:44:17.610Z,21.40
2018-05-08T19:49:20.710Z,21.20
2018-05-08T19:54:23.806Z,20.90
2018-05-08T19:59:26.901Z,20.80
2018-05-08T20:04:29.998Z,20.80
2018-05-08T20:09:33.121Z,20.90
2018-05-08T20:14:37.728Z,20.90
2018-05-08T20:19:40.821Z,20.90
2018-05-08T20:29:49.102Z,20.80
2018-05-08T20:34:52.202Z,20.80
2018-05-08T20:45:00.129Z,20.60
2018-05-08T20:50:03.607Z,20.50
2018-05-08T21:00:11.135Z,20.30
2018-05-08T21:05:14.253Z,20.10
2018-05-08T21:10:17.742Z,19.90
2018-05-08T21:15:21.970Z,19.70
2018-05-08T21:20:25.829Z,19.60
2018-05-08T21:25:28.917Z,19.50
2018-05-08T21:35:42.954Z,19.30
2018-05-08T21:40:47.550Z,18.90
2018-05-08T21:50:55.454Z,18.60
2018-05-08T21:56:01.174Z,18.50
2018-05-08T22:06:09.090Z,18.30
2018-05-08T22:11:12.191Z,18.10
2018-05-08T22:16:16.423Z,17.70
2018-05-08T22:21:20.278Z,17.80
2018-05-08T22:26:23.775Z,17.90
2018-05-08T22:31:28.383Z,17.90
2018-05-08T22:41:35.913Z,17.90
2018-05-08T22:46:39.010Z,18.00
2018-05-08T22:51:42.866Z,18.10
2018-05-08T22:56:45.968Z,18.10
2018-05-08T23:01:49.060Z,18.10
2018-05-08T23:06:52.566Z,18.10
2018-05-08T23:11:56.791Z,18.00
2018-05-08T23:17:00.646Z,18.00
2018-05-08T23:22:03.750Z,17.80
2018-05-08T23:27:07.237Z,17.70
2018-05-08T23:32:11.097Z,17.70
2018-05-08T23:37:14.966Z,17.60
2018-05-08T23:42:18.065Z,17.60
2018-05-08T23:47:22.667Z,17.40
2018-05-08T23:52:25.764Z,17.40
2018-05-08T23:57:29.619Z,17.40
